Nearby METAR Reports

 

EGMC - Southend-On-Sea, United Kingdom
Distance from station: NE 10km
Updated: 27/11/2020 15:50
Mostly cloudy
Mostly cloudy
 Wind from N
Wind: N 2 mph , 4 km/h
Temperature: 6°C
Dew Point: 5°C
Humidity: 93%
Barometer: 1017 hPa
Clouds: Mostly cloudy
Visibility: 6 miles , 10 km
Cloud details: Few Clouds 853 m
Mostly cloudy 1494 m
2020/11/27 15:50 EGMC 271550Z 35002KT 9999 FEW028 BKN049 06/05 Q1017
EGLC - London City Airp, United Kingdom
Distance from station: W 37km
Updated: 27/11/2020 16:20
Mostly cloudy
Mostly cloudy
 Wind from NE
Wind: NE 5 mph , 7 km/h
Temperature: 7°C
Wind Chill: 6°C
Dew Point: 4°C
Humidity: 81%
Barometer: 1017 hPa
Clouds: Mostly cloudy
Visibility: 6 miles , 10 km
Cloud details: Mostly cloudy 1311 m
2020/11/27 16:20 EGLC 271620Z AUTO 05004KT 9999 BKN043 07/04 Q1017
EGKB - Biggin Hill, United Kingdom
Distance from station: WSW 45km
Updated: 27/11/2020 16:20
Mostly cloudy
Mostly cloudy
 Wind from ENE
Wind: ENE 5 mph , 7 km/h
Temperature: 4°C
Wind Chill: 2°C
Dew Point: 3°C
Humidity: 93%
Barometer: 1017 hPa
Clouds: Mostly cloudy
Visibility: 6 miles , 10 km
Cloud details: Mostly cloudy 1067 m
2020/11/27 16:20 EGKB 271620Z 06004KT 9999 BKN035 04/03 Q1017
 
EGSS - Stansted Airport, United Kingdom
Distance from station: NNW 48km
Updated: 27/11/2020 16:20
Mist, Overcast
Mist, Overcast
 Wind from N
Wind: N 5 mph , 7 km/h
Temperature: 4°C
Wind Chill: 2°C
Dew Point: 4°C
Humidity: 100%
Barometer: 1017 hPa
Summary: Mist
Clouds: Overcast
Visibility: 2 miles , 3 km
Cloud details: Mostly cloudy 640 m
Mostly cloudy 945 m
Overcast 1463 m
2020/11/27 16:20 EGSS 271620Z AUTO 35004KT 2700 BR BKN021 BKN031 OVC048 04/04 Q1017
EGKK - London/Gatwick A, United Kingdom
Distance from station: SW 67km
Updated: 27/11/2020 16:20
Few Clouds
Few Clouds
 Wind from NNE
Wind: NNE 6 mph , 9 km/h
Temperature: 7°C
Wind Chill: 6°C
Dew Point: 5°C
Humidity: 87%
Barometer: 1016 hPa
Clouds: Few Clouds
Visibility: 6 miles , 10 km
Cloud details: Few Clouds 610 m
2020/11/27 16:20 EGKK 271620Z 03005KT 9999 FEW020 07/05 Q1016
EGMD - Lydd Airport, United Kingdom
Distance from station: SSE 67km
Updated: 27/11/2020 16:20
Few Clouds
Few Clouds
 Wind from ESE
Wind: ESE 13 mph , 20 km/h
Temperature: 10°C
Wind Chill: 7°C
Dew Point: 8°C
Humidity: 88%
Barometer: 1017 hPa
Clouds: Few Clouds
Visibility: 6 miles , 10 km
Cloud details: Few Clouds 457 m
2020/11/27 16:20 EGMD 271620Z 11011KT 9999 FEW015 10/08 Q1017
 
EGWU - Northolt Raf, United Kingdom
Distance from station: W 69km
Updated: 27/11/2020 15:50
Haze, Mostly cloudy
Haze, Mostly cloudy
 Wind from NE
Wind: NE 5 mph , 7 km/h
Temperature: 5°C
Wind Chill: 3°C
Dew Point: 4°C
Humidity: 93%
Barometer: 1017 hPa
Summary: Haze
Clouds: Mostly cloudy
Visibility: 4 miles , 7 km
Cloud details: Mostly cloudy 610 m
Mostly cloudy 1372 m
2020/11/27 15:50 EGWU 271550Z 04004KT 7000 HZ BKN020 BKN045 05/04 Q1017 NOSIG
EGLL - London/Heathrow, United Kingdom
Distance from station: W 72km
Updated: 27/11/2020 16:20
Overcast
Overcast
 Wind from ENE
Wind: ENE 5 mph , 7 km/h
Temperature: 6°C
Wind Chill: 4°C
Dew Point: 3°C
Humidity: 81%
Barometer: 1017 hPa
Clouds: Overcast
Visibility: 6 miles , 10 km
Cloud details: Partly cloudy 671 m
Overcast 975 m
2020/11/27 16:20 EGLL 271620Z AUTO 06004KT 020V080 9999 SCT022 OVC032 06/03 Q1017 NOSIG
EGUW - Wattisham Raf, United Kingdom
Distance from station: NNE 72km
Updated: 27/11/2020 16:05
Mist, Mostly cloudy
Mist, Mostly cloudy
 Wind from NNE
Wind: NNE 6 mph , 9 km/h
Temperature: 4°C
Wind Chill: 2°C
Dew Point: 4°C
Humidity: 100%
Barometer: 1017 hPa
Summary: Mist
Clouds: Mostly cloudy
Visibility: 1 mile , 2 km
Cloud details: Few Clouds 762 m
Mostly cloudy 823 m
2020/11/27 16:05 EGUW 271605Z 02005KT 1500 BR FEW025 BKN027 04/04 Q1017 TEMPO 3000 RMK AMB TEMPO YLO1
 
EGGW - Luton Airport, United Kingdom
Distance from station: WNW 76km
Updated: 27/11/2020 16:20
Mist, Mostly cloudy
Mist, Mostly cloudy
 Wind from NNE
Wind: NNE 6 mph , 9 km/h
Temperature: 3°C
Wind Chill: 0°C
Dew Point: 3°C
Humidity: 100%
Barometer: 1017 hPa
Summary: Mist
Clouds: Mostly cloudy
Visibility: 2 miles , 4 km
Cloud details: Partly cloudy 549 m
Partly cloudy 792 m
Mostly cloudy 1128 m
2020/11/27 16:20 EGGW 271620Z AUTO 03005KT 3600 BR SCT018 SCT026 BKN037 03/03 Q1017
EGSC - Cambridge, United Kingdom
Distance from station: NNW 81km
Updated: 27/11/2020 16:20
Fog, Mostly cloudy
Fog, Mostly cloudy
 Wind from NNE
Wind: NNE 5 mph , 7 km/h
Temperature: 3°C
Wind Chill: 1°C
Dew Point: 3°C
Humidity: 100%
Barometer: 1018 hPa
Summary: Fog
Clouds: Mostly cloudy
Visibility: 0 mile , 1 km
Cloud details: Mostly cloudy 30 m
2020/11/27 16:20 EGSC 271620Z 03004KT 0650 R23/1400U FG BKN001 03/03 Q1018